Monday, October 15, 2018, 5:29 AM EDT
Back to Local

KBML, Berlin Municipal Airport

Location: Milan, NH, United States Lat: 44.583
Local Time: 5:29 AM EDT ( 9:29 GMT) Lon: -71.183
Time Zone: US/Eastern Elev: 1158 ft

Show me the last for .
Show Coded

Time T Td Feel RH Dir Speed Gust Alt SLP Vis Weather Sky Remarks
2018-10-15 05:15 29 27 - 92 - Calm - 30.16 - 0 BR VV001 None
2018-10-15 05:12 29 27 - 92 - Calm - 30.16 - 1 BR OVC001 Variable visibility
2018-10-15 05:00 28 26 - 92 - Calm - 30.16 - 4 BR OVC001 None
2018-10-15 04:58 27 27 - 100 - Calm - 30.16 - 1 BR OVC001 None
2018-10-15 04:52 28 28 - 100 - Calm - 30.16 30.19 0 FZFG VV001 None
2018-10-15 04:26 29 28 - 96 - Calm - 30.16 - 0 BR VV001 None
2018-10-15 04:22 29 28 - 96 - Calm - 30.16 - 1 BR OVC001 None
2018-10-15 04:14 28 27 - 95 - Calm - 30.16 - 6 BR BKN001 None
2018-10-15 03:52 29 27 - 92 - Calm - 30.17 30.20 10 FEW001 None
2018-10-15 03:10 27 26 - 96 - Calm - 30.17 - 10 FEW001 None
2018-10-15 02:52 29 27 - 92 - Calm - 30.18 30.21 10 CLR None
2018-10-15 02:01 29 27 - 92 - Calm - 30.18 - 10 SCT001 None
2018-10-15 01:52 29 27 - 92 - Calm - 30.18 30.21 10 CLR 6-hr Min Temp (2am): 27.0°F
6-hr Max Temp (2am): 36.0°F
2018-10-15 01:11 29 27 - 92 - Calm - 30.17 - 10 FEW001 None
2018-10-15 00:52 29 28 - 96 - Calm - 30.18 30.21 10 CLR 24-hr Min Temp (1am): 28.9°F
24-hr Max Temp (1am): 55.0°F
2018-10-14 23:52 29 27 - 92 - Calm - 30.18 30.22 10 CLR None
2018-10-14 22:52 29 28 - 96 - Calm - 30.18 30.22 10 CLR None
2018-10-14 21:52 32 30 - 92 - Calm - 30.17 30.21 10 CLR None
2018-10-14 20:52 34 32 - 92 - Calm - 30.16 30.20 10 CLR None
2018-10-14 19:52 35 32 - 88 - Calm - 30.15 30.19 10 CLR 6-hr Min Temp (8pm): 34.0°F
6-hr Max Temp (8pm): 55.0°F
2018-10-14 18:52 40 33 - 76 - Calm - 30.14 30.18 10 CLR None
2018-10-14 17:52 50 27 - 40 - Calm - 30.12 30.15 10 CLR None
2018-10-14 16:52 53 27 - 36 270° 8 - 30.11 30.13 10 CLR None
2018-10-14 15:52 54 27 - 35 Variable 7 - 30.11 30.13 10 CLR None
2018-10-14 14:52 54 30 - 39 Variable 6 - 30.10 30.13 10 CLR None
2018-10-14 13:52 53 31 - 42 Variable 6 - 30.11 30.13 10 CLR 6-hr Min Temp (2pm): 34.0°F
6-hr Max Temp (2pm): 53.1°F
2018-10-14 12:52 51 31 - 45 Variable 7 - 30.11 30.14 10 CLR None
2018-10-14 11:52 48 31 46 51 310° 5 - 30.11 30.14 10 CLR None
2018-10-14 10:52 45 30 - 55 - Calm - 30.12 30.15 10 BKN041 None
2018-10-14 09:52 44 30 41 57 Variable 6 - 30.13 30.15 10 BKN043 None
2018-10-14 08:52 40 29 38 64 Variable 3 - 30.11 30.14 10 OVC045 None
2018-10-14 07:52 34 33 - 96 - Calm - 30.11 30.14 10 OVC044 24-hr Precip Total (8am): 0.02"
6-hr Min Temp (8am): 32.0°F
6-hr Max Temp (8am): 39.9°F
2018-10-14 06:52 34 32 - 92 - Calm - 30.08 30.11 10 BKN043 None
2018-10-14 05:52 38 32 - 78 - Calm - 30.06 30.09 10 OVC043 None

Support USWX by starting your Amazon purchase here.